createdAt,value
2019-04-14T00:00:23.238Z,11.13
2019-04-14T00:02:57.635Z,10.00
2019-04-14T00:05:25.711Z,11.10
2019-04-14T00:07:53.826Z,11.17
2019-04-14T00:10:22.538Z,11.50
2019-04-14T00:12:51.506Z,12.43
2019-04-14T00:15:29.354Z,13.40
2019-04-14T00:17:48.851Z,11.87
2019-04-14T00:20:19.057Z,13.67
2019-04-14T00:22:46.910Z,14.23
2019-04-14T00:25:15.173Z,14.33
2019-04-14T00:27:43.211Z,13.97
2019-04-14T00:30:11.893Z,14.73
2019-04-14T00:32:52.980Z,15.10
2019-04-14T00:35:42.785Z,15.57
2019-04-14T00:38:28.424Z,16.10
2019-04-14T00:41:07.217Z,14.80
2019-04-14T00:43:39.889Z,17.13
2019-04-14T00:49:07.048Z,18.27
2019-04-14T00:51:37.738Z,18.00
2019-04-14T00:57:31.204Z,18.33
2019-04-14T00:59:59.531Z,18.30
2019-04-14T01:02:42.934Z,18.33
2019-04-14T01:05:10.920Z,19.30
2019-04-14T01:07:48.047Z,19.93
2019-04-14T01:10:15.611Z,18.47
2019-04-14T01:12:47.395Z,20.27
2019-04-14T01:15:15.814Z,20.50
2019-04-14T01:17:43.902Z,21.50
2019-04-14T01:20:14.530Z,22.17
2019-04-14T01:22:42.447Z,22.10
2019-04-14T01:25:10.660Z,24.00
2019-04-14T01:27:40.556Z,23.17
2019-04-14T01:30:09.055Z,20.63
2019-04-14T01:32:37.249Z,19.80
2019-04-14T01:35:05.343Z,23.17
2019-04-14T01:37:34.064Z,23.20
2019-04-14T01:40:01.607Z,16.70
2019-04-14T01:42:29.129Z,22.60
2019-04-14T01:44:57.039Z,23.60
2019-04-14T01:47:24.971Z,23.00
2019-04-14T01:49:53.062Z,21.57
2019-04-14T01:55:59.123Z,21.60
2019-04-14T02:01:32.487Z,22.37
2019-04-14T02:04:00.662Z,22.97
2019-04-14T02:06:28.789Z,22.70
2019-04-14T02:08:57.020Z,24.73
2019-04-14T02:11:38.222Z,21.90
2019-04-14T02:14:06.302Z,23.40
2019-04-14T02:54:51.932Z,23.07
2019-04-14T02:59:49.893Z,24.30
2019-04-14T03:04:54.898Z,26.90
2019-04-14T03:07:26.413Z,25.90
2019-04-14T03:12:24.891Z,26.10
2019-04-14T03:17:45.187Z,26.73
2019-04-14T03:23:05.043Z,24.60
2019-04-14T03:25:58.530Z,24.93
2019-04-14T03:36:44.899Z,26.50
2019-04-14T03:38:53.290Z,27.03
2019-04-14T03:41:17.311Z,28.53
2019-04-14T03:43:39.469Z,28.23
2019-04-14T03:48:56.071Z,29.70
2019-04-14T03:51:08.494Z,31.70
2019-04-14T03:53:36.104Z,30.13
2019-04-14T03:56:04.276Z,29.50
2019-04-14T03:58:29.282Z,29.93
2019-04-14T04:00:57.610Z,31.27
2019-04-14T04:03:26.056Z,28.80
2019-04-14T04:05:54.229Z,29.33
2019-04-14T04:08:22.461Z,30.70
2019-04-14T04:10:51.088Z,31.43
2019-04-14T04:13:19.384Z,31.27
2019-04-14T04:15:47.751Z,32.80
2019-04-14T04:18:22.005Z,53.00
2019-04-14T04:21:18.393Z,39.57
2019-04-14T04:24:05.043Z,36.23
2019-04-14T04:26:52.253Z,35.60
2019-04-14T04:29:39.808Z,36.47
2019-04-14T04:32:18.441Z,37.17
2019-04-14T04:35:06.475Z,37.90
2019-04-14T04:37:52.034Z,35.90
2019-04-14T04:40:22.552Z,33.97
2019-04-14T04:42:50.500Z,37.40
2019-04-14T04:45:19.127Z,37.80
2019-04-14T04:47:47.026Z,35.30
2019-04-14T04:50:15.063Z,37.23
2019-04-14T04:52:42.962Z,37.23
2019-04-14T04:55:11.246Z,38.17
2019-04-14T04:57:39.521Z,39.63
2019-04-14T05:00:07.527Z,38.97
2019-04-14T05:02:35.370Z,40.10
2019-04-14T05:05:03.562Z,41.20
2019-04-14T05:07:31.706Z,39.90
2019-04-14T05:10:17.505Z,40.40
2019-04-14T05:12:52.218Z,37.13
2019-04-14T05:15:34.426Z,41.07
2019-04-14T05:18:02.784Z,38.23
2019-04-14T05:20:31.291Z,41.60
2019-04-14T05:22:59.389Z,42.83
2019-04-14T05:25:27.587Z,43.77
2019-04-14T05:27:55.867Z,47.20
2019-04-14T05:30:24.308Z,43.33
2019-04-14T05:32:52.241Z,42.33
2019-04-14T05:35:20.597Z,46.30
2019-04-14T05:37:48.677Z,48.43
2019-04-14T05:40:16.802Z,47.53
2019-04-14T05:42:45.011Z,47.17
2019-04-14T05:45:13.371Z,47.80
2019-04-14T05:47:41.486Z,46.40
2019-04-14T05:50:09.514Z,44.23
2019-04-14T05:52:38.236Z,45.87
2019-04-14T05:55:06.612Z,42.70
2019-04-14T05:57:35.188Z,42.87
2019-04-14T06:00:05.903Z,41.53
2019-04-14T06:02:33.609Z,39.47
2019-04-14T06:05:01.535Z,36.97
2019-04-14T06:07:29.375Z,34.67
2019-04-14T06:09:56.950Z,33.77
2019-04-14T06:12:24.939Z,33.40
2019-04-14T06:14:52.805Z,30.97
2019-04-14T06:17:20.370Z,32.50
2019-04-14T06:19:47.956Z,34.45
2019-04-14T06:22:15.531Z,28.53
2019-04-14T06:24:43.119Z,28.70
2019-04-14T06:27:10.669Z,28.47
2019-04-14T06:29:38.536Z,26.43
2019-04-14T06:32:20.538Z,21.90
2019-04-14T06:35:10.633Z,25.50
2019-04-14T06:37:44.903Z,25.53
2019-04-14T06:40:12.532Z,25.73
2019-04-14T06:42:40.069Z,25.80
2019-04-14T06:45:07.693Z,26.33
2019-04-14T06:47:35.248Z,26.80
2019-04-14T06:50:03.361Z,27.90
2019-04-14T06:52:31.198Z,24.60
2019-04-14T06:54:58.923Z,24.27
2019-04-14T06:57:26.415Z,25.40
2019-04-14T06:59:54.169Z,23.50
2019-04-14T07:02:22.278Z,28.40
2019-04-14T07:04:50.193Z,24.60
2019-04-14T07:07:18.134Z,23.80
2019-04-14T07:09:45.648Z,26.00
2019-04-14T07:12:13.251Z,25.30
2019-04-14T07:14:40.898Z,24.83
2019-04-14T07:17:08.520Z,23.87
2019-04-14T07:19:36.355Z,23.07
2019-04-14T07:22:04.991Z,24.40
2019-04-14T07:24:32.575Z,21.50
2019-04-14T07:27:00.173Z,23.60
2019-04-14T07:29:31.140Z,25.17
2019-04-14T07:32:35.423Z,24.03
2019-04-14T07:35:25.455Z,20.83
2019-04-14T07:38:15.916Z,24.73
2019-04-14T07:41:17.998Z,24.47
2019-04-14T07:44:15.080Z,23.83
2019-04-14T07:47:02.753Z,22.63
2019-04-14T07:49:48.449Z,22.53
2019-04-14T07:52:23.038Z,22.33
2019-04-14T07:54:56.312Z,24.37
2019-04-14T07:57:46.495Z,17.57
2019-04-14T08:00:30.041Z,26.10
2019-04-14T08:03:02.356Z,21.53
2019-04-14T08:05:33.266Z,25.67
2019-04-14T08:08:01.149Z,21.97
2019-04-14T08:10:28.757Z,24.50
2019-04-14T08:12:56.594Z,22.60
2019-04-14T08:15:24.240Z,27.27
2019-04-14T08:17:52.064Z,24.27
2019-04-14T08:20:27.334Z,21.73
2019-04-14T08:22:48.995Z,23.43
2019-04-14T08:25:16.529Z,27.37
2019-04-14T08:27:44.105Z,28.40
2019-04-14T08:30:11.627Z,28.50
2019-04-14T08:32:39.528Z,27.03
2019-04-14T08:35:07.325Z,27.50
2019-04-14T08:37:34.889Z,29.20
2019-04-14T08:40:03.822Z,25.77
2019-04-14T08:42:57.204Z,27.90
2019-04-14T08:45:45.526Z,28.47
2019-04-14T08:48:35.748Z,29.60
2019-04-14T08:51:08.132Z,30.73
2019-04-14T08:53:49.602Z,28.00
2019-04-14T08:56:28.019Z,33.47
2019-04-14T08:59:13.906Z,27.20
2019-04-14T09:02:03.353Z,30.30
2019-04-14T09:05:02.843Z,28.90
2019-04-14T09:07:52.852Z,29.40
2019-04-14T09:10:23.665Z,19.30
2019-04-14T09:12:52.775Z,28.07
2019-04-14T09:15:21.897Z,31.07
2019-04-14T09:17:49.768Z,30.20
2019-04-14T09:20:17.382Z,32.37
2019-04-14T09:22:46.213Z,34.00
2019-04-14T09:25:13.765Z,31.83
2019-04-14T09:27:41.319Z,31.63
2019-04-14T09:30:09.081Z,33.70
2019-04-14T09:32:36.683Z,32.40
2019-04-14T09:35:04.590Z,33.33
2019-04-14T09:37:32.053Z,33.30
2019-04-14T09:39:59.642Z,31.27
2019-04-14T09:42:27.416Z,29.13
2019-04-14T09:44:55.262Z,30.43
2019-04-14T09:47:23.018Z,33.50
2019-04-14T09:49:50.570Z,33.13
2019-04-14T09:52:18.421Z,32.47
2019-04-14T09:54:45.997Z,29.27
2019-04-14T09:57:14.570Z,33.27
2019-04-14T09:59:42.124Z,34.60
2019-04-14T10:02:10.074Z,32.80
2019-04-14T10:04:37.637Z,34.23
2019-04-14T10:07:05.229Z,35.60
2019-04-14T10:09:33.115Z,35.67
2019-04-14T10:12:01.111Z,36.50
2019-04-14T10:14:29.002Z,35.30
2019-04-14T10:16:56.605Z,36.67
2019-04-14T10:19:24.398Z,35.20
2019-04-14T10:21:51.966Z,33.87
2019-04-14T10:24:19.782Z,30.73
2019-04-14T10:26:48.433Z,27.43
2019-04-14T10:29:15.887Z,28.80
2019-04-14T10:31:43.460Z,25.23
2019-04-14T10:34:11.120Z,24.70
2019-04-14T10:36:38.681Z,28.63
2019-04-14T10:39:06.890Z,28.00
2019-04-14T10:41:36.464Z,26.93
2019-04-14T10:44:03.989Z,24.80
2019-04-14T10:46:31.846Z,24.87
2019-04-14T10:48:59.375Z,23.23
2019-04-14T10:51:30.375Z,21.97
2019-04-14T10:53:56.178Z,25.80
2019-04-14T10:56:24.025Z,23.17
2019-04-14T10:58:51.643Z,22.33
2019-04-14T11:01:19.222Z,24.23
2019-04-14T11:03:46.885Z,20.07
2019-04-14T11:06:21.141Z,24.40
2019-04-14T11:11:48.095Z,22.03
2019-04-14T11:14:15.790Z,24.07
2019-04-14T11:16:44.526Z,24.17
2019-04-14T11:19:13.260Z,23.13
2019-04-14T11:21:43.097Z,23.17
2019-04-14T11:24:11.105Z,22.53
2019-04-14T11:26:38.807Z,23.57
2019-04-14T11:29:06.457Z,20.87
2019-04-14T11:31:51.950Z,20.70
2019-04-14T11:34:20.305Z,20.57
2019-04-14T11:37:10.714Z,23.03
2019-04-14T11:39:38.567Z,23.23
2019-04-14T11:42:06.227Z,21.40
2019-04-14T11:44:34.314Z,21.03
2019-04-14T11:47:02.831Z,23.10
2019-04-14T11:49:30.523Z,22.70
2019-04-14T11:51:58.187Z,22.47
2019-04-14T11:54:25.838Z,20.87
2019-04-14T11:56:53.762Z,21.40
2019-04-14T11:59:30.586Z,20.93
2019-04-14T12:02:18.472Z,22.13
2019-04-14T12:04:54.738Z,21.80
2019-04-14T12:07:42.144Z,22.60
2019-04-14T12:10:34.498Z,23.83
2019-04-14T12:13:02.430Z,23.87
2019-04-14T12:15:30.047Z,22.00
2019-04-14T12:17:57.509Z,23.73
2019-04-14T12:20:25.269Z,21.63
2019-04-14T12:22:53.098Z,22.77
2019-04-14T12:25:20.625Z,23.37
2019-04-14T12:27:48.916Z,24.00
2019-04-14T12:30:17.926Z,18.40
2019-04-14T12:32:46.213Z,21.97
2019-04-14T12:35:13.926Z,22.27
2019-04-14T12:37:41.592Z,27.00
2019-04-14T12:40:10.212Z,26.37
2019-04-14T12:43:03.608Z,26.77
2019-04-14T12:45:56.720Z,23.65
2019-04-14T12:48:51.914Z,23.55
2019-04-14T12:51:31.117Z,21.87
2019-04-14T12:53:58.703Z,26.87
2019-04-14T12:56:27.263Z,26.97
2019-04-14T12:59:14.407Z,22.70
2019-04-14T13:01:48.962Z,22.80
2019-04-14T13:04:16.552Z,23.90
2019-04-14T13:06:44.415Z,22.17
2019-04-14T13:09:14.453Z,21.30
2019-04-14T13:11:41.342Z,40.10
2019-04-14T13:14:10.272Z,23.87
2019-04-14T13:16:37.776Z,25.25
2019-04-14T13:19:05.306Z,25.88
2019-04-14T13:21:32.910Z,23.57
2019-04-14T13:24:00.360Z,20.50
2019-04-14T13:26:28.305Z,25.12
2019-04-14T13:28:55.884Z,16.40
2019-04-14T13:31:23.473Z,23.98
2019-04-14T13:33:51.018Z,23.47
2019-04-14T13:36:18.580Z,25.17
2019-04-14T13:38:46.165Z,24.43
2019-04-14T13:41:13.839Z,83.67
2019-04-14T13:43:41.365Z,22.80
2019-04-14T13:46:08.957Z,25.13
2019-04-14T13:48:36.458Z,25.30
2019-04-14T13:51:04.506Z,24.07
2019-04-14T13:53:32.074Z,24.00
2019-04-14T13:55:59.655Z,25.90
2019-04-14T13:58:27.489Z,23.27
2019-04-14T14:00:55.059Z,23.98
2019-04-14T14:03:22.653Z,24.57
2019-04-14T14:05:50.368Z,22.40
2019-04-14T14:08:17.994Z,32.25
2019-04-14T14:10:45.819Z,22.25
2019-04-14T14:13:32.510Z,24.73
2019-04-14T14:16:18.057Z,22.70
2019-04-14T14:18:50.869Z,21.20
2019-04-14T14:21:44.207Z,23.50
2019-04-14T14:24:43.436Z,22.65
2019-04-14T14:27:11.116Z,26.17
2019-04-14T14:29:39.341Z,22.43
2019-04-14T14:32:12.445Z,22.93
2019-04-14T14:34:40.329Z,20.70
2019-04-14T14:37:07.858Z,19.73
2019-04-14T14:39:35.555Z,21.20
2019-04-14T14:42:03.639Z,20.87
2019-04-14T14:44:55.183Z,18.90
2019-04-14T14:47:25.601Z,17.70
2019-04-14T14:50:03.709Z,20.30
2019-04-14T14:52:31.756Z,18.90
2019-04-14T14:54:59.353Z,18.70
2019-04-14T14:57:26.977Z,22.07
2019-04-14T14:59:54.851Z,19.60
2019-04-14T15:02:22.692Z,15.30
2019-04-14T15:04:50.542Z,19.90
2019-04-14T15:07:18.375Z,17.85
2019-04-14T15:09:46.214Z,18.00
2019-04-14T15:12:13.770Z,19.23
2019-04-14T15:14:41.356Z,18.67
2019-04-14T15:17:09.244Z,19.42
2019-04-14T15:19:36.811Z,18.15
2019-04-14T15:22:04.629Z,19.10
2019-04-14T15:24:32.104Z,19.45
2019-04-14T15:26:59.782Z,18.00
2019-04-14T15:29:27.739Z,17.55
2019-04-14T15:31:55.372Z,19.02
2019-04-14T15:34:22.939Z,19.35
2019-04-14T15:36:50.856Z,19.32
2019-04-14T15:39:18.759Z,19.05
2019-04-14T15:41:46.588Z,19.85
2019-04-14T15:44:14.190Z,18.50
2019-04-14T15:46:42.029Z,18.02
2019-04-14T15:49:09.622Z,16.70
2019-04-14T15:51:37.190Z,18.05
2019-04-14T15:54:04.753Z,17.57
2019-04-14T15:56:50.568Z,16.55
2019-04-14T15:59:29.691Z,18.10
2019-04-14T16:02:16.238Z,16.05
2019-04-14T16:05:07.062Z,16.27
2019-04-14T16:07:47.879Z,17.07
2019-04-14T16:10:43.810Z,13.98
2019-04-14T16:13:28.033Z,15.20
2019-04-14T16:16:01.582Z,14.43
2019-04-14T16:18:49.894Z,17.30
2019-04-14T16:21:17.468Z,18.53
2019-04-14T16:23:50.654Z,16.50
2019-04-14T16:26:46.066Z,16.87
2019-04-14T16:29:33.256Z,18.63
2019-04-14T16:32:19.072Z,15.07
2019-04-14T16:34:56.446Z,14.53
2019-04-14T16:37:24.043Z,14.93
2019-04-14T16:39:51.628Z,13.30
2019-04-14T16:42:19.473Z,15.17
2019-04-14T16:44:46.926Z,14.93
2019-04-14T16:47:14.507Z,15.97
2019-04-14T16:49:42.054Z,15.33
2019-04-14T16:52:27.727Z,15.07
2019-04-14T16:55:00.664Z,15.77
2019-04-14T16:57:59.853Z,14.33
2019-04-14T17:00:31.098Z,14.87
2019-04-14T17:02:58.688Z,14.17
2019-04-14T17:05:26.172Z,15.10
2019-04-14T17:07:53.879Z,16.10
2019-04-14T17:10:22.412Z,14.70
2019-04-14T17:12:50.052Z,14.50
2019-04-14T17:15:36.008Z,14.47
2019-04-14T17:18:23.438Z,14.20
2019-04-14T17:20:58.017Z,14.00
2019-04-14T17:23:41.157Z,13.83
2019-04-14T17:26:13.784Z,13.93
2019-04-14T17:29:13.086Z,14.50
2019-04-14T17:32:02.686Z,14.37
2019-04-14T17:34:36.999Z,14.70
2019-04-14T17:37:22.440Z,14.43
2019-04-14T17:39:56.994Z,13.27
2019-04-14T17:42:27.924Z,15.00
2019-04-14T17:45:14.918Z,13.47
2019-04-14T17:48:05.756Z,14.13
2019-04-14T17:50:47.541Z,13.13
2019-04-14T17:53:23.503Z,13.73
2019-04-14T17:56:06.930Z,12.90
2019-04-14T17:58:50.645Z,12.13
2019-04-14T18:01:37.008Z,12.77
2019-04-14T18:04:09.370Z,11.90
2019-04-14T18:07:05.524Z,11.90
2019-04-14T18:09:39.206Z,12.47
2019-04-14T18:12:26.931Z,11.57
2019-04-14T18:15:12.317Z,11.90
2019-04-14T18:18:09.248Z,13.07
2019-04-14T18:20:40.505Z,12.87
2019-04-14T18:23:08.055Z,11.13
2019-04-14T18:25:35.797Z,11.37
2019-04-14T18:28:40.858Z,10.57
2019-04-14T18:31:17.633Z,10.77
2019-04-14T18:34:00.564Z,10.60
2019-04-14T18:36:47.598Z,10.60
2019-04-14T18:39:50.078Z,10.77
2019-04-14T18:42:21.572Z,9.23
2019-04-14T18:45:08.895Z,10.10
2019-04-14T18:47:47.952Z,9.77
2019-04-14T18:50:30.991Z,9.40
2019-04-14T18:53:02.612Z,10.50
2019-04-14T18:55:58.211Z,9.70
2019-04-14T18:58:45.454Z,10.43
2019-04-14T19:01:18.001Z,9.97
2019-04-14T19:03:45.519Z,9.70
2019-04-14T19:06:13.099Z,10.10
2019-04-14T19:08:40.583Z,9.40
2019-04-14T19:11:30.473Z,8.33
2019-04-14T19:13:58.234Z,9.70
2019-04-14T19:16:39.568Z,9.43
2019-04-14T19:19:04.405Z,10.23
2019-04-14T19:21:32.026Z,10.03
2019-04-14T19:23:59.563Z,10.80
2019-04-14T19:26:27.700Z,8.90
2019-04-14T19:28:55.336Z,9.33
2019-04-14T19:31:22.822Z,9.33
2019-04-14T19:33:50.392Z,8.87
2019-04-14T19:36:18.318Z,9.43
2019-04-14T19:38:46.137Z,9.33
2019-04-14T19:41:13.742Z,8.83
2019-04-14T19:43:41.360Z,9.27
2019-04-14T19:46:08.921Z,7.97
2019-04-14T19:48:36.652Z,9.63
2019-04-14T19:51:04.379Z,8.37
2019-04-14T19:53:31.876Z,8.87
2019-04-14T19:55:59.430Z,8.40
2019-04-14T19:58:29.027Z,8.67
2019-04-14T20:00:56.624Z,9.40
2019-04-14T20:03:24.565Z,9.33
2019-04-14T20:05:52.164Z,8.30
2019-04-14T20:08:19.715Z,9.43
2019-04-14T20:10:47.263Z,9.70
2019-04-14T20:13:15.909Z,9.17
2019-04-14T20:16:03.227Z,9.00
2019-04-14T20:18:44.610Z,9.13
2019-04-14T20:21:31.300Z,9.13
2019-04-14T20:24:12.245Z,8.63
2019-04-14T20:27:01.963Z,8.83
2019-04-14T20:29:33.690Z,9.23
2019-04-14T20:32:26.622Z,9.93
2019-04-14T20:34:54.572Z,10.23
2019-04-14T20:37:22.167Z,9.40
2019-04-14T20:39:49.828Z,10.30
2019-04-14T20:42:17.441Z,10.10
2019-04-14T20:44:45.377Z,9.93
2019-04-14T20:47:13.837Z,10.13
2019-04-14T20:49:41.931Z,10.33
2019-04-14T20:52:09.595Z,9.80
2019-04-14T20:54:37.176Z,10.33
2019-04-14T20:57:05.053Z,10.43
2019-04-14T20:59:32.544Z,8.87
2019-04-14T21:02:14.578Z,10.07
2019-04-14T21:05:00.326Z,9.30
2019-04-14T21:07:57.173Z,8.50
2019-04-14T21:10:44.430Z,9.77
2019-04-14T21:13:24.508Z,10.20
2019-04-14T21:15:57.279Z,9.50
2019-04-14T21:18:42.218Z,9.83
2019-04-14T21:21:38.528Z,9.60
2019-04-14T21:24:23.941Z,9.60
2019-04-14T21:27:11.227Z,10.57
2019-04-14T21:30:04.271Z,9.93
2019-04-14T21:32:36.474Z,9.60
2019-04-14T21:35:22.316Z,10.53
2019-04-14T21:38:15.517Z,11.03
2019-04-14T21:40:45.592Z,10.37
2019-04-14T21:43:13.355Z,10.00
2019-04-14T21:45:40.915Z,10.00
2019-04-14T21:48:08.782Z,9.83
2019-04-14T21:50:36.683Z,9.83
2019-04-14T21:53:04.578Z,11.00
2019-04-14T21:55:32.350Z,10.17
2019-04-14T21:58:19.637Z,10.13
2019-04-14T22:01:41.093Z,11.37
2019-04-14T22:04:18.407Z,11.17
2019-04-14T22:06:46.485Z,10.87
2019-04-14T22:09:20.378Z,11.53
2019-04-14T22:11:47.919Z,11.17
2019-04-14T22:14:15.531Z,11.30
2019-04-14T22:17:01.459Z,10.53
2019-04-14T22:19:29.708Z,11.00
2019-04-14T22:22:03.172Z,11.97
2019-04-14T22:24:30.968Z,12.07
2019-04-14T22:26:58.527Z,10.87
2019-04-14T22:29:54.795Z,11.40
2019-04-14T22:32:24.492Z,11.70
2019-04-14T22:34:53.713Z,11.43
2019-04-14T22:40:50.028Z,11.37
2019-04-14T22:46:36.874Z,11.40
2019-04-14T22:49:06.369Z,11.87
2019-04-14T22:51:53.357Z,12.47
2019-04-14T22:54:22.945Z,11.80
2019-04-14T22:56:52.387Z,11.53
2019-04-14T22:59:23.860Z,12.30
2019-04-14T23:02:04.227Z,11.33
2019-04-14T23:04:58.001Z,11.73
2019-04-14T23:07:42.149Z,12.87
2019-04-14T23:10:44.062Z,12.33
2019-04-14T23:13:32.176Z,13.17
2019-04-14T23:16:18.654Z,11.30
2019-04-14T23:18:52.587Z,13.07
2019-04-14T23:21:41.890Z,13.77
2019-04-14T23:24:15.071Z,13.80
2019-04-14T23:26:52.277Z,14.03
2019-04-14T23:29:11.963Z,14.07
2019-04-14T23:31:39.498Z,14.50
2019-04-14T23:34:11.016Z,13.70
2019-04-14T23:36:38.599Z,14.30
2019-04-14T23:39:12.015Z,13.87
2019-04-14T23:45:03.146Z,14.10
2019-04-14T23:50:35.953Z,14.37
2019-04-14T23:53:03.527Z,15.77
2019-04-14T23:59:10.467Z,14.67
